Weather History for Zephyrhills, FL

Change the Weather History Date:

Monday, August 27, 2012

  Actual Average (KPCM) Record (KPCM)
Temperature  
Mean Temperature 78 °F -  
Max Temperature 84 °F 91 °F 97 °F (1938)
Min Temperature 73 °F 71 °F 66 °F (1969)
Cooling Degree Days 14    
Growing Degree Days 28 (Base 50)    
Moisture  
Dew Point 73 °F    
Average Humidity 87    
Maximum Humidity 94    
Minimum Humidity 70    
Precipitation  
Precipitation 1.48 in - - ()
Sea Level Pressure  
Sea Level Pressure 29.82 in    
Wind  
Wind Speed 10 mph ()    
Max Wind Speed 20 mph    
Max Gust Speed 29 mph    
Visibility 8.3 miles    
Events Rain , Thunderstorm    
Averages and records for this station are not official NWS values.
T = Trace of Precipitation, MM = Missing Value Source: Averaged Metar Reports

Daily Weather History Graph

Daily Weather History Graph

Search for Another Location

Airport:

Trip Planner

Search our weather history database for the weather conditions in past years. The results will help you decide how hot, cold, wet, or windy it might be!

Date:

Astronomy

Aug. 27, 2012 Rise Set
Actual Time 7:04 AM EDT 7:54 PM EDT
Civil Twilight 6:40 AM EDT 8:18 PM EDT
Nautical Twilight 6:12 AM EDT 8:47 PM EDT
Astronomical Twilight 5:43 AM EDT 9:16 PM EDT
Moon 5:00 PM EDT (8/27) 3:01 AM EDT (8/27)
Length of Visible Light 13h 37m
Length of Day
12h 49m
Waxing Gibbous, 82% of the Moon is Illuminated
Aug 27
Waxing Gibbous
Aug 31
Full
Sep 8
Last Quarter
Sep 15
New
Sep 22
First Quarter

Hourly Weather History & Observations

Time (EDT) Temp. Heat Index Dew Point Humidity Pressure Visibility Wind Dir Wind Speed Gust Speed Precip Events Conditions
12:15 AM 73.4 °F - 71.6 °F 94% 29.87 in 10.0 mi ENE 6.9 mph - N/A   Clear
12:55 AM 73.4 °F - 71.6 °F 94% 29.85 in 10.0 mi ENE 9.2 mph - 0.01 in Rain Light Rain
1:15 AM 73.4 °F - 71.6 °F 94% 29.85 in 10.0 mi ENE 8.1 mph - 0.01 in Rain Light Rain
1:35 AM 73.4 °F - 71.6 °F 94% 29.84 in 5.0 mi ENE 12.7 mph 19.6 mph 0.08 in Rain Rain
2:15 AM 73.4 °F - 71.6 °F 94% 29.83 in 5.0 mi ENE 11.5 mph 18.4 mph 0.08 in Rain Rain
2:55 AM 75.2 °F - 71.6 °F 89% 29.80 in 5.0 mi ENE 12.7 mph 20.7 mph 0.22 in Rain Rain
3:15 AM 75.2 °F - 73.4 °F 94% 29.81 in 4.0 mi East 17.3 mph 25.3 mph 0.11 in Rain Rain
3:35 AM 75.2 °F - 73.4 °F 94% 29.82 in 7.0 mi East 11.5 mph 18.4 mph 0.18 in Rain Rain
3:55 AM 75.2 °F - 71.6 °F 89% 29.81 in 7.0 mi East 12.7 mph 18.4 mph 0.23 in Rain Light Rain
4:15 AM 73.4 °F - 71.6 °F 94% 29.80 in 10.0 mi East 9.2 mph 19.6 mph 0.01 in Rain Rain
4:35 AM 73.4 °F - 71.6 °F 94% 29.80 in 10.0 mi East 13.8 mph - 0.01 in   Light Drizzle
5:15 AM 73.4 °F - 71.6 °F 94% 29.80 in 4.0 mi East 19.6 mph 28.8 mph 0.10 in Rain Rain
5:35 AM 73.4 °F - 71.6 °F 94% 29.80 in 7.0 mi East 12.7 mph 26.5 mph 0.17 in Rain Rain
5:55 AM 73.4 °F - 71.6 °F 94% 29.81 in 5.0 mi East 17.3 mph 24.2 mph 0.27 in Rain Rain
6:15 AM 73.4 °F - 71.6 °F 94% 29.81 in 7.0 mi East 10.4 mph 20.7 mph 0.05 in Rain Light Rain
6:35 AM 73.4 °F - 71.6 °F 94% 29.82 in 3.0 mi East 10.4 mph 13.8 mph 0.24 in Rain Rain
7:15 AM 73.4 °F - 71.6 °F 94% 29.82 in 5.0 mi East 11.5 mph 23.0 mph 0.09 in Rain Light Rain
7:35 AM 73.4 °F - 71.6 °F 94% 29.82 in 10.0 mi East 12.7 mph - 0.10 in Rain Light Rain
7:55 AM 73.4 °F - 71.6 °F 94% 29.83 in 5.0 mi East 16.1 mph 20.7 mph 0.11 in   Light Drizzle
8:15 AM 73.4 °F - 71.6 °F 94% 29.83 in 4.0 mi East 11.5 mph 18.4 mph 0.10 in Rain Light Rain
8:35 AM 73.4 °F - 71.6 °F 94% 29.83 in 10.0 mi East 18.4 mph 26.5 mph 0.15 in   Overcast
8:55 AM 73.4 °F - 71.6 °F 94% 29.83 in 7.0 mi East 11.5 mph 20.7 mph 0.15 in   Overcast
9:15 AM 75.2 °F - 73.4 °F 94% 29.83 in 5.0 mi East 13.8 mph 18.4 mph 0.01 in   Overcast
9:55 AM 75.2 °F - 73.4 °F 94% 29.84 in 4.0 mi East 9.2 mph - 0.03 in Rain Light Rain
10:15 AM 75.2 °F - 73.4 °F 94% 29.84 in 7.0 mi East 8.1 mph - 0.04 in Rain Light Rain
10:35 AM 77.0 °F - 73.4 °F 89% 29.84 in 10.0 mi East 13.8 mph 19.6 mph 0.05 in   Overcast
10:55 AM 77.0 °F - 73.4 °F 89% 29.84 in 10.0 mi ESE 11.5 mph 16.1 mph 0.05 in   Overcast
11:15 AM 77.0 °F - 73.4 °F 89% 29.83 in 10.0 mi East 10.4 mph - 0.01 in   Overcast
11:35 AM 77.0 °F - 73.4 °F 89% 29.84 in 10.0 mi East 11.5 mph - 0.01 in Rain Light Rain
11:55 AM 77.0 °F - 73.4 °F 89% 29.84 in 10.0 mi East 8.1 mph 20.7 mph 0.01 in   Overcast
12:15 PM 78.8 °F - 75.2 °F 89% 29.83 in 10.0 mi East 13.8 mph 19.6 mph N/A   Overcast
12:35 PM 80.6 °F 86.2 °F 75.2 °F 84% 29.83 in 10.0 mi East 9.2 mph 20.7 mph N/A   Overcast
12:55 PM 80.6 °F 86.2 °F 75.2 °F 84% 29.82 in 10.0 mi East 12.7 mph 23.0 mph N/A   Overcast
1:15 PM 80.6 °F 85.4 °F 73.4 °F 79% 29.82 in 10.0 mi East 13.8 mph 20.7 mph N/A   Overcast
1:55 PM 82.4 °F 88.2 °F 73.4 °F 74% 29.80 in 10.0 mi East 12.7 mph 18.4 mph N/A   Overcast
2:15 PM 82.4 °F 88.2 °F 73.4 °F 74% 29.79 in 10.0 mi ESE 16.1 mph 24.2 mph N/A   Overcast
2:35 PM 84.2 °F 90.9 °F 73.4 °F 70% 29.79 in 10.0 mi ESE 17.3 mph 25.3 mph N/A   Overcast
2:55 PM 84.2 °F 90.9 °F 73.4 °F 70% 29.79 in 10.0 mi ESE 11.5 mph 25.3 mph N/A   Overcast
3:15 PM 82.4 °F 88.2 °F 73.4 °F 74% 29.79 in 10.0 mi ESE 15.0 mph 21.9 mph N/A   Overcast
3:35 PM 82.4 °F 88.2 °F 73.4 °F 74% 29.79 in 10.0 mi East 13.8 mph 20.7 mph N/A   Mostly Cloudy
3:55 PM 82.4 °F 88.2 °F 73.4 °F 74% 29.79 in 10.0 mi ESE 9.2 mph 13.8 mph N/A Rain Rain
4:15 PM 80.6 °F 85.4 °F 73.4 °F 79% 29.79 in 10.0 mi ESE 12.7 mph 21.9 mph N/A   Overcast
4:35 PM 80.6 °F 85.4 °F 73.4 °F 79% 29.79 in 10.0 mi ESE 11.5 mph - N/A Thunderstorm Mostly Cloudy
4:55 PM 80.6 °F 85.4 °F 73.4 °F 79% 29.78 in 7.0 mi ESE 11.5 mph 20.7 mph N/A Rain Light Rain
5:15 PM 78.8 °F - 73.4 °F 83% 29.78 in 7.0 mi ESE 8.1 mph 17.3 mph N/A   Overcast
5:35 PM 78.8 °F - 75.2 °F 89% 29.78 in 10.0 mi SE 6.9 mph - N/A   Overcast
5:55 PM 78.8 °F - 73.4 °F 83% 29.79 in 3.0 mi ESE 10.4 mph 21.9 mph 0.06 in Rain Heavy Rain
6:15 PM 78.8 °F - 75.2 °F 89% 29.80 in 10.0 mi ESE 10.4 mph 16.1 mph N/A   Mostly Cloudy
6:35 PM 78.8 °F - 73.4 °F 83% 29.80 in 10.0 mi ESE 11.5 mph - N/A   Scattered Clouds
6:55 PM 78.8 °F - 73.4 °F 83% 29.79 in 10.0 mi East 12.7 mph 17.3 mph N/A   Clear
7:15 PM 78.8 °F - 73.4 °F 83% 29.80 in 10.0 mi ESE 10.4 mph - N/A Thunderstorm Mostly Cloudy
7:35 PM 78.8 °F - 73.4 °F 83% 29.81 in 10.0 mi ESE 9.2 mph 17.3 mph N/A Thunderstorm Thunderstorm
7:55 PM 78.8 °F - 73.4 °F 83% 29.82 in 10.0 mi ESE 12.7 mph - N/A   Scattered Clouds
8:15 PM 78.8 °F - 73.4 °F 83% 29.82 in 10.0 mi ESE 10.4 mph - N/A   Scattered Clouds
8:35 PM 78.8 °F - 73.4 °F 83% 29.82 in 10.0 mi ESE 8.1 mph 16.1 mph N/A   Mostly Cloudy
8:55 PM 78.8 °F - 73.4 °F 83% 29.83 in 10.0 mi ESE 8.1 mph - N/A   Mostly Cloudy
9:15 PM 77.0 °F - 73.4 °F 89% 29.85 in 4.0 mi ESE 10.4 mph 17.3 mph N/A   Drizzle
9:35 PM 77.0 °F - 73.4 °F 89% 29.86 in 7.0 mi ESE 8.1 mph - 0.01 in   Light Drizzle
9:55 PM 77.0 °F - 73.4 °F 89% 29.87 in 10.0 mi SE 8.1 mph - 0.01 in   Mostly Cloudy
10:15 PM 77.0 °F - 73.4 °F 89% 29.88 in 10.0 mi ESE 6.9 mph - N/A   Scattered Clouds
10:35 PM 77.0 °F - 73.4 °F 89% 29.89 in 7.0 mi SE 6.9 mph - N/A   Scattered Clouds
10:55 PM 77.0 °F - 73.4 °F 89% 29.89 in 10.0 mi SE 9.2 mph - N/A   Mostly Cloudy
11:15 PM 77.0 °F - 73.4 °F 89% 29.89 in 10.0 mi SE 9.2 mph - N/A   Mostly Cloudy
11:35 PM 77.0 °F - 73.4 °F 89% 29.90 in 10.0 mi SE 9.2 mph - N/A   Mostly Cloudy
11:55 PM 77.0 °F - 73.4 °F 89% 29.91 in 10.0 mi Calm Calm - N/A   Scattered Clouds